sensor_id;sensor_type;location;lat;lon;timestamp;pressure;altitude;pressure_sealevel;temperature;humidity
17649;BME280;8943;51.110;-4.158;2023-07-29T00:01:53;100143.75;;;20.82;54.88
17649;BME280;8943;51.110;-4.158;2023-07-29T00:04:24;100134.78;;;20.81;54.77
17649;BME280;8943;51.110;-4.158;2023-07-29T00:07:00;100137.28;;;20.83;54.61
17649;BME280;8943;51.110;-4.158;2023-07-29T00:09:30;100135.81;;;20.80;54.76
17649;BME280;8943;51.110;-4.158;2023-07-29T00:12:21;100131.03;;;20.82;54.79
17649;BME280;8943;51.110;-4.158;2023-07-29T00:14:57;100126.66;;;20.81;55.02
17649;BME280;8943;51.110;-4.158;2023-07-29T00:18:16;100132.06;;;20.81;54.94
17649;BME280;8943;51.110;-4.158;2023-07-29T00:21:29;100127.50;;;20.82;54.95
17649;BME280;8943;51.110;-4.158;2023-07-29T00:30:34;100120.41;;;20.81;55.11
17649;BME280;8943;51.110;-4.158;2023-07-29T00:33:03;100116.47;;;20.83;54.95
17649;BME280;8943;51.110;-4.158;2023-07-29T00:35:34;100117.75;;;20.88;54.79
17649;BME280;8943;51.110;-4.158;2023-07-29T00:41:38;100118.41;;;20.90;55.01
17649;BME280;8943;51.110;-4.158;2023-07-29T00:44:07;100112.34;;;20.88;55.02
17649;BME280;8943;51.110;-4.158;2023-07-29T00:47:01;100109.25;;;20.91;54.78
17649;BME280;8943;51.110;-4.158;2023-07-29T00:50:09;100107.38;;;20.91;54.93
17649;BME280;8943;51.110;-4.158;2023-07-29T00:53:27;100113.81;;;20.90;55.24
17649;BME280;8943;51.110;-4.158;2023-07-29T00:56:05;100113.25;;;20.95;54.94
17649;BME280;8943;51.110;-4.158;2023-07-29T00:59:19;100105.50;;;20.92;54.91
17649;BME280;8943;51.110;-4.158;2023-07-29T01:01:48;100105.28;;;20.93;54.99
17649;BME280;8943;51.110;-4.158;2023-07-29T01:04:35;100109.03;;;20.92;54.92
17649;BME280;8943;51.110;-4.158;2023-07-29T01:07:14;100102.78;;;20.92;55.19
17649;BME280;8943;51.110;-4.158;2023-07-29T01:09:56;100090.91;;;20.93;55.06
17649;BME280;8943;51.110;-4.158;2023-07-29T01:12:33;100094.03;;;20.90;55.14
17649;BME280;8943;51.110;-4.158;2023-07-29T01:16:00;100088.63;;;20.90;55.54
17649;BME280;8943;51.110;-4.158;2023-07-29T01:18:36;100087.59;;;20.91;55.13
17649;BME280;8943;51.110;-4.158;2023-07-29T01:21:09;100097.00;;;20.95;55.19
17649;BME280;8943;51.110;-4.158;2023-07-29T01:23:42;100085.72;;;20.91;55.25
17649;BME280;8943;51.110;-4.158;2023-07-29T01:26:12;100091.16;;;20.98;55.24
17649;BME280;8943;51.110;-4.158;2023-07-29T01:28:53;100084.75;;;20.99;55.31
17649;BME280;8943;51.110;-4.158;2023-07-29T01:31:31;100083.72;;;21.00;55.38
17649;BME280;8943;51.110;-4.158;2023-07-29T01:34:09;100078.75;;;21.03;55.07
17649;BME280;8943;51.110;-4.158;2023-07-29T01:36:45;100082.06;;;21.05;55.28
17649;BME280;8943;51.110;-4.158;2023-07-29T01:39:19;100080.84;;;21.08;55.11
17649;BME280;8943;51.110;-4.158;2023-07-29T01:41:50;100079.16;;;21.07;55.33
17649;BME280;8943;51.110;-4.158;2023-07-29T01:44:19;100080.25;;;21.13;55.18
17649;BME280;8943;51.110;-4.158;2023-07-29T01:46:49;100075.88;;;21.12;55.41
17649;BME280;8943;51.110;-4.158;2023-07-29T01:49:19;100071.09;;;21.14;55.24
17649;BME280;8943;51.110;-4.158;2023-07-29T01:52:00;100072.13;;;21.13;55.00
17649;BME280;8943;51.110;-4.158;2023-07-29T01:54:33;100072.97;;;21.13;55.62
17649;BME280;8943;51.110;-4.158;2023-07-29T01:57:04;100073.59;;;21.15;55.34
17649;BME280;8943;51.110;-4.158;2023-07-29T02:02:15;100063.41;;;21.17;55.36
17649;BME280;8943;51.110;-4.158;2023-07-29T02:05:03;100060.94;;;21.22;55.28
17649;BME280;8943;51.110;-4.158;2023-07-29T02:08:01;100074.09;;;21.25;55.07
17649;BME280;8943;51.110;-4.158;2023-07-29T02:11:17;100077.34;;;21.14;55.02
17649;BME280;8943;51.110;-4.158;2023-07-29T06:04:38;100118.91;;;20.57;57.20
17649;BME280;8943;51.110;-4.158;2023-07-29T06:25:35;100138.16;;;21.12;55.76
17649;BME280;8943;51.110;-4.158;2023-07-29T09:31:42;100263.69;;;22.52;46.39
17649;BME280;8943;51.110;-4.158;2023-07-29T09:34:15;100255.69;;;22.38;46.53
17649;BME280;8943;51.110;-4.158;2023-07-29T12:35:45;100381.50;;;23.41;47.50
17649;BME280;8943;51.110;-4.158;2023-07-29T12:38:42;100383.41;;;23.47;47.22
17649;BME280;8943;51.110;-4.158;2023-07-29T12:41:43;100406.25;;;23.52;46.89
17649;BME280;8943;51.110;-4.158;2023-07-29T12:50:33;100390.84;;;23.73;45.73
17649;BME280;8943;51.110;-4.158;2023-07-29T12:53:09;100397.13;;;23.80;45.43
17649;BME280;8943;51.110;-4.158;2023-07-29T12:56:11;100400.06;;;23.85;45.22
17649;BME280;8943;51.110;-4.158;2023-07-29T13:13:20;100407.59;;;24.29;43.74
17649;BME280;8943;51.110;-4.158;2023-07-29T13:15:50;100405.09;;;24.34;44.91
17649;BME280;8943;51.110;-4.158;2023-07-29T13:19:23;100409.25;;;24.77;42.78
17649;BME280;8943;51.110;-4.158;2023-07-29T13:22:42;100426.22;;;24.85;43.38
17649;BME280;8943;51.110;-4.158;2023-07-29T13:26:11;100418.81;;;25.06;43.80
17649;BME280;8943;51.110;-4.158;2023-07-29T13:52:56;100423.34;;;27.20;38.41
17649;BME280;8943;51.110;-4.158;2023-07-29T13:58:21;100434.06;;;27.52;38.27
17649;BME280;8943;51.110;-4.158;2023-07-29T14:49:33;100460.59;;;29.23;34.01
17649;BME280;8943;51.110;-4.158;2023-07-29T15:13:28;100473.69;;;29.73;32.40
17649;BME280;8943;51.110;-4.158;2023-07-29T16:31:55;100488.34;;;30.70;29.05
17649;BME280;8943;51.110;-4.158;2023-07-29T16:34:24;100474.72;;;30.63;29.94
17649;BME280;8943;51.110;-4.158;2023-07-29T16:40:33;100475.44;;;30.08;29.84
17649;BME280;8943;51.110;-4.158;2023-07-29T18:07:59;100454.97;;;26.73;33.76
17649;BME280;8943;51.110;-4.158;2023-07-29T18:10:31;100451.81;;;26.51;35.07
17649;BME280;8943;51.110;-4.158;2023-07-29T18:46:00;100486.16;;;26.33;37.06
17649;BME280;8943;51.110;-4.158;2023-07-29T18:53:42;100503.13;;;24.34;41.27
17649;BME280;8943;51.110;-4.158;2023-07-29T18:56:14;100480.88;;;23.98;42.56
17649;BME280;8943;51.110;-4.158;2023-07-29T18:58:42;100504.44;;;23.64;43.08
17649;BME280;8943;51.110;-4.158;2023-07-29T19:01:15;100499.09;;;23.43;44.17
17649;BME280;8943;51.110;-4.158;2023-07-29T19:17:26;100499.34;;;22.57;46.95
17649;BME280;8943;51.110;-4.158;2023-07-29T19:20:00;100506.78;;;22.48;47.51
17649;BME280;8943;51.110;-4.158;2023-07-29T19:22:33;100494.25;;;22.47;47.29
17649;BME280;8943;51.110;-4.158;2023-07-29T19:25:20;100493.41;;;22.47;47.32
17649;BME280;8943;51.110;-4.158;2023-07-29T22:05:23;100571.28;;;21.29;51.80
17649;BME280;8943;51.110;-4.158;2023-07-29T22:07:52;100589.25;;;21.30;51.56
17649;BME280;8943;51.110;-4.158;2023-07-29T23:35:01;100619.31;;;20.83;51.04
